Time;durP1;ratioP1;P1;durP2;ratioP2;P2;SDS_P1;SDS_P2;PMS_P1;PMS_P2;Temp;Humidity;BMP_temperature;BMP_pressure;BME280_temperature;BME280_humidity;BME280_pressure;Samples;Min_cycle;Max_cycle;Signal;HPM_P1;HPM_P2
2020/12/22 00:01:05;;;;;;;7.7;3.7;;;;;;;;;;;;;
2020/12/22 00:03:30;;;;;;;4.8;2.9;;;;;;;;;;;;;
2020/12/22 00:05:55;;;;;;;9.7;4.3;;;;;;;;;;;;;
2020/12/22 00:08:20;;;;;;;5.9;3.2;;;;;;;;;;;;;
2020/12/22 00:10:46;;;;;;;5.1;2.3;;;;;;;;;;;;;
2020/12/22 00:13:11;;;;;;;7.9;3.3;;;;;;;;;;;;;
2020/12/22 00:15:36;;;;;;;2.8;2;;;;;;;;;;;;;
2020/12/22 00:18:01;;;;;;;4.4;1.6;;;;;;;;;;;;;
2020/12/22 00:20:26;;;;;;;1.6;1.2;;;;;;;;;;;;;
2020/12/22 00:22:52;;;;;;;2.1;1.2;;;;;;;;;;;;;
2020/12/22 00:25:16;;;;;;;1.5;1.2;;;;;;;;;;;;;
2020/12/22 00:27:42;;;;;;;2.6;1.1;;;;;;;;;;;;;
2020/12/22 00:30:07;;;;;;;1.1;0.9;;;;;;;;;;;;;
2020/12/22 00:32:32;;;;;;;0.9;0.5;;;;;;;;;;;;;
2020/12/22 00:34:57;;;;;;;1.9;0.8;;;;;;;;;;;;;
2020/12/22 00:37:23;;;;;;;1.3;0.8;;;;;;;;;;;;;
2020/12/22 00:39:48;;;;;;;0.3;0.3;;;;;;;;;;;;;
2020/12/22 00:42:14;;;;;;;1.2;0.6;;;;;;;;;;;;;
2020/12/22 00:44:39;;;;;;;0.2;0.2;;;;;;;;;;;;;
2020/12/22 00:47:05;;;;;;;0.5;0.3;;;;;;;;;;;;;
2020/12/22 00:49:30;;;;;;;1.1;0.7;;;;;;;;;;;;;
2020/12/22 00:51:55;;;;;;;0.3;0.3;;;;;;;;;;;;;
2020/12/22 00:54:21;;;;;;;0.7;0.4;;;;;;;;;;;;;
2020/12/22 00:56:46;;;;;;;0.8;0.6;;;;;;;;;;;;;
2020/12/22 00:59:11;;;;;;;1.7;0.7;;;;;;;;;;;;;
2020/12/22 01:01:36;;;;;;;1.3;0.5;;;;;;;;;;;;;
2020/12/22 01:04:03;;;;;;;1.3;1;;;;;;;;;;;;;
2020/12/22 01:06:28;;;;;;;1.5;1;;;;;;;;;;;;;
2020/12/22 01:08:53;;;;;;;1.1;0.6;;;;;;;;;;;;;
2020/12/22 01:11:18;;;;;;;2.6;1.3;;;;;;;;;;;;;
2020/12/22 01:13:43;;;;;;;2;1.1;;;;;;;;;;;;;
2020/12/22 01:16:08;;;;;;;0.9;0.6;;;;;;;;;;;;;
2020/12/22 01:18:33;;;;;;;0.8;0.7;;;;;;;;;;;;;
2020/12/22 01:20:58;;;;;;;1.3;0.9;;;;;;;;;;;;;
2020/12/22 01:23:24;;;;;;;0.9;0.7;;;;;;;;;;;;;
2020/12/22 01:25:49;;;;;;;1.1;0.6;;;;;;;;;;;;;
2020/12/22 01:28:14;;;;;;;0.7;0.7;;;;;;;;;;;;;
2020/12/22 01:30:40;;;;;;;0.9;0.7;;;;;;;;;;;;;
2020/12/22 01:33:05;;;;;;;1.5;0.9;;;;;;;;;;;;;
2020/12/22 01:35:32;;;;;;;2.3;1.1;;;;;;;;;;;;;
2020/12/22 01:37:57;;;;;;;1.6;1;;;;;;;;;;;;;
2020/12/22 01:40:25;;;;;;;1.5;0.9;;;;;;;;;;;;;
2020/12/22 01:42:50;;;;;;;2.9;1.3;;;;;;;;;;;;;
2020/12/22 01:45:16;;;;;;;1.5;1.2;;;;;;;;;;;;;
2020/12/22 01:47:41;;;;;;;3.1;1.3;;;;;;;;;;;;;
2020/12/22 01:50:06;;;;;;;1.4;0.8;;;;;;;;;;;;;
2020/12/22 01:52:32;;;;;;;1.6;0.7;;;;;;;;;;;;;
2020/12/22 01:54:57;;;;;;;1;0.7;;;;;;;;;;;;;
2020/12/22 01:57:22;;;;;;;1.6;0.8;;;;;;;;;;;;;
2020/12/22 01:59:48;;;;;;;1.3;0.6;;;;;;;;;;;;;
2020/12/22 02:02:13;;;;;;;0.8;0.6;;;;;;;;;;;;;
2020/12/22 02:04:39;;;;;;;1.3;1;;;;;;;;;;;;;
2020/12/22 02:07:05;;;;;;;2.2;1.1;;;;;;;;;;;;;
2020/12/22 02:09:29;;;;;;;0.9;0.6;;;;;;;;;;;;;
2020/12/22 02:11:54;;;;;;;1.5;0.9;;;;;;;;;;;;;
2020/12/22 02:14:20;;;;;;;1.3;0.7;;;;;;;;;;;;;
2020/12/22 02:16:45;;;;;;;1.1;0.6;;;;;;;;;;;;;
2020/12/22 02:19:10;;;;;;;0.5;0.5;;;;;;;;;;;;;
2020/12/22 02:21:35;;;;;;;1.3;0.7;;;;;;;;;;;;;
2020/12/22 02:24:00;;;;;;;0.6;0.5;;;;;;;;;;;;;
2020/12/22 02:26:26;;;;;;;2.1;0.8;;;;;;;;;;;;;
2020/12/22 02:28:51;;;;;;;2;0.5;;;;;;;;;;;;;
2020/12/22 02:31:18;;;;;;;1.6;0.3;;;;;;;;;;;;;
2020/12/22 02:33:43;;;;;;;0.8;0.3;;;;;;;;;;;;;
2020/12/22 02:36:08;;;;;;;0.5;0.5;;;;;;;;;;;;;
2020/12/22 02:38:33;;;;;;;0.5;0.4;;;;;;;;;;;;;
2020/12/22 02:41:00;;;;;;;0.9;0.4;;;;;;;;;;;;;
2020/12/22 02:43:25;;;;;;;0.1;0.1;;;;;;;;;;;;;
2020/12/22 02:45:52;;;;;;;0.3;0.3;;;;;;;;;;;;;
2020/12/22 02:48:17;;;;;;;0.5;0.3;;;;;;;;;;;;;
2020/12/22 02:50:42;;;;;;;0.3;0.3;;;;;;;;;;;;;
2020/12/22 02:53:08;;;;;;;0.2;0.1;;;;;;;;;;;;;
2020/12/22 02:55:34;;;;;;;0.1;0.1;;;;;;;;;;;;;
2020/12/22 02:57:59;;;;;;;0.1;0.1;;;;;;;;;;;;;
2020/12/22 03:00:26;;;;;;;0.3;0.3;;;;;;;;;;;;;
2020/12/22 03:02:51;;;;;;;0.3;0.3;;;;;;;;;;;;;
2020/12/22 03:05:16;;;;;;;0.3;0.3;;;;;;;;;;;;;
2020/12/22 03:07:42;;;;;;;0.9;0.4;;;;;;;;;;;;;
2020/12/22 03:10:08;;;;;;;0.8;0.6;;;;;;;;;;;;;
2020/12/22 03:12:33;;;;;;;0.5;0.4;;;;;;;;;;;;;
2020/12/22 03:14:58;;;;;;;1.3;0.7;;;;;;;;;;;;;
2020/12/22 03:17:23;;;;;;;1.6;0.5;;;;;;;;;;;;;
2020/12/22 03:19:49;;;;;;;0.6;0.4;;;;;;;;;;;;;
2020/12/22 03:22:14;;;;;;;0.9;0.3;;;;;;;;;;;;;
2020/12/22 03:24:40;;;;;;;2.3;0.5;;;;;;;;;;;;;
2020/12/22 03:27:05;;;;;;;0.4;0.2;;;;;;;;;;;;;
2020/12/22 03:29:31;;;;;;;0.9;0.4;;;;;;;;;;;;;
2020/12/22 03:31:57;;;;;;;1;0.5;;;;;;;;;;;;;
2020/12/22 03:34:23;;;;;;;0.2;0.2;;;;;;;;;;;;;
2020/12/22 03:36:48;;;;;;;0.8;0.6;;;;;;;;;;;;;
2020/12/22 03:39:14;;;;;;;0.3;0.2;;;;;;;;;;;;;
2020/12/22 03:41:39;;;;;;;0.7;0.4;;;;;;;;;;;;;
2020/12/22 03:44:04;;;;;;;0.4;0.2;;;;;;;;;;;;;
2020/12/22 03:46:30;;;;;;;0.9;0.6;;;;;;;;;;;;;
2020/12/22 03:48:55;;;;;;;0.3;0.3;;;;;;;;;;;;;
2020/12/22 03:51:20;;;;;;;0.3;0.3;;;;;;;;;;;;;
2020/12/22 03:53:45;;;;;;;0.3;0.2;;;;;;;;;;;;;
2020/12/22 03:56:11;;;;;;;0.2;0.2;;;;;;;;;;;;;
2020/12/22 03:58:35;;;;;;;1;0.5;;;;;;;;;;;;;
2020/12/22 04:02:30;;;;;;;0.2;0.2;;;;;;;6.34;93.14648;939.8287;;;;
2020/12/22 04:04:55;;;;;;;0.8;0.6;;;;;;;6.4;92.54785;939.8627;;;;
2020/12/22 04:07:20;;;;;;;0.5;0.4;;;;;;;6.4;91.91602;939.9277;;;;
2020/12/22 04:09:45;;;;;;;0.5;0.4;;;;;;;6.42;91.86133;939.9015;;;;
2020/12/22 04:12:10;;;;;;;0.6;0.6;;;;;;;6.4;91.76953;939.8881;;;;
2020/12/22 04:14:35;;;;;;;0.4;0.4;;;;;;;6.37;91.37695;939.7504;;;;
2020/12/22 04:17:02;;;;;;;1.4;1.2;;;;;;;6.19;91.44043;939.8328;;;;
2020/12/22 04:19:27;;;;;;;1.3;0.8;;;;;;;6.15;92.12207;939.7859;;;;
2020/12/22 04:21:53;;;;;;;16.6;8.3;;;;;;;6.19;92.36719;939.8392;;;;
2020/12/22 04:24:18;;;;;;;7;3;;;;;;;6.2;92.43652;939.8286;;;;
2020/12/22 04:26:44;;;;;;;0.9;0.8;;;;;;;5.92;93.28027;939.935;;;;
2020/12/22 04:29:09;;;;;;;5.7;2.6;;;;;;;5.92;93.92383;939.7402;;;;
2020/12/22 04:31:37;;;;;;;1.5;0.5;;;;;;;6.02;95.19043;939.8606;;;;
2020/12/22 04:34:02;;;;;;;0.9;0.5;;;;;;;6.06;95.33398;939.8538;;;;
2020/12/22 04:36:27;;;;;;;5;0.5;;;;;;;6.09;94.50586;939.8531;;;;
2020/12/22 04:38:52;;;;;;;1.3;0.8;;;;;;;6.13;93.86816;939.9673;;;;
2020/12/22 04:41:19;;;;;;;0.5;0.4;;;;;;;6.06;93.19629;940.0419;;;;
2020/12/22 04:43:44;;;;;;;0.7;0.6;;;;;;;6.02;92.80664;940.0392;;;;
2020/12/22 04:46:09;;;;;;;1;0.6;;;;;;;6.05;92.29102;940.1245;;;;
2020/12/22 04:48:35;;;;;;;0.8;0.5;;;;;;;5.87;92.99902;940.2389;;;;
2020/12/22 04:51:00;;;;;;;0.8;0.8;;;;;;;5.84;92.77832;940.2522;;;;
2020/12/22 04:53:25;;;;;;;0.4;0.4;;;;;;;5.82;92.54688;940.2964;;;;
2020/12/22 04:55:51;;;;;;;0.8;0.6;;;;;;;5.84;92.09961;940.3358;;;;
2020/12/22 04:58:16;;;;;;;0.4;0.4;;;;;;;5.74;91.70703;940.3784;;;;
2020/12/22 05:00:41;;;;;;;0.5;0.4;;;;;;;5.71;91.67676;940.2352;;;;
2020/12/22 05:03:07;;;;;;;3;1.9;;;;;;;5.54;91.56152;940.2382;;;;
2020/12/22 05:05:33;;;;;;;3.9;2;;;;;;;5.4;91.71289;940.3008;;;;
2020/12/22 05:07:59;;;;;;;10.9;4.2;;;;;;;5.15;93.03223;940.3586;;;;
2020/12/22 05:10:24;;;;;;;6.8;3.5;;;;;;;5.26;93.56543;940.372;;;;
2020/12/22 05:12:50;;;;;;;4;2.4;;;;;;;5.27;93.28516;940.497;;;;
2020/12/22 05:15:15;;;;;;;5.1;2.4;;;;;;;5.2;93.12305;940.3422;;;;
2020/12/22 05:17:42;;;;;;;3.9;2.2;;;;;;;5.02;93.86133;940.4799;;;;
2020/12/22 05:20:07;;;;;;;3.5;2.1;;;;;;;4.98;93.49219;940.6014;;;;
2020/12/22 05:22:34;;;;;;;2.9;1.7;;;;;;;4.86;94.05078;940.5862;;;;
2020/12/22 05:24:59;;;;;;;7.7;2.9;;;;;;;4.82;94.90137;940.7292;;;;
2020/12/22 05:27:25;;;;;;;5.6;2.9;;;;;;;4.86;94.89551;940.7124;;;;
2020/12/22 05:29:51;;;;;;;6;2.9;;;;;;;4.88;94.86816;940.6752;;;;
2020/12/22 05:32:16;;;;;;;8.4;3.7;;;;;;;4.87;94.77832;940.7792;;;;
2020/12/22 05:34:41;;;;;;;4.9;2.4;;;;;;;4.92;94.58301;940.6575;;;;
2020/12/22 05:37:06;;;;;;;3.4;2.3;;;;;;;4.98;93.98828;940.6496;;;;
2020/12/22 05:39:31;;;;;;;8.3;3;;;;;;;5.01;93.55469;940.6412;;;;
2020/12/22 05:41:56;;;;;;;6.7;2.7;;;;;;;5.02;92.8916;940.6749;;;;
2020/12/22 05:44:22;;;;;;;7.9;3.4;;;;;;;5.09;92.42285;940.6685;;;;
2020/12/22 05:46:48;;;;;;;3.6;2.5;;;;;;;5.08;91.94727;940.7029;;;;
2020/12/22 05:49:14;;;;;;;3.1;1.8;;;;;;;4.97;93.47754;940.6467;;;;
2020/12/22 05:51:39;;;;;;;4.3;2.4;;;;;;;4.83;94.9707;940.7967;;;;
2020/12/22 05:54:06;;;;;;;5.9;2.6;;;;;;;4.91;95.39258;940.7766;;;;
2020/12/22 05:56:31;;;;;;;4.7;2.1;;;;;;;4.95;95.32324;940.8298;;;;
2020/12/22 05:58:58;;;;;;;4.7;2.2;;;;;;;4.89;95.0957;940.8855;;;;
2020/12/22 06:01:23;;;;;;;4.5;1.5;;;;;;;4.91;94.81738;940.812;;;;
2020/12/22 06:03:50;;;;;;;3.6;1.7;;;;;;;4.98;94.41699;940.8855;;;;
2020/12/22 06:06:15;;;;;;;3.9;2.3;;;;;;;5.04;93.97754;940.8444;;;;
2020/12/22 06:08:41;;;;;;;13.5;6.2;;;;;;;4.91;93.47656;940.8386;;;;
2020/12/22 06:11:06;;;;;;;17.1;5.3;;;;;;;4.92;93.18555;940.7727;;;;
2020/12/22 06:13:32;;;;;;;10.2;5.9;;;;;;;4.84;93.00098;940.8814;;;;
2020/12/22 06:15:57;;;;;;;14.1;6.1;;;;;;;4.79;92.92188;940.8518;;;;
2020/12/22 06:18:25;;;;;;;16.6;5.6;;;;;;;4.83;93.05371;940.8542;;;;
2020/12/22 06:20:50;;;;;;;9.8;4.6;;;;;;;4.88;92.99707;940.8427;;;;
2020/12/22 06:23:16;;;;;;;7.7;3.6;;;;;;;4.91;92.55273;940.9333;;;;
2020/12/22 06:25:41;;;;;;;8.5;4.6;;;;;;;4.79;92.53809;941.0569;;;;
2020/12/22 06:28:06;;;;;;;3.6;2.4;;;;;;;4.79;92.80859;940.9573;;;;
2020/12/22 06:30:34;;;;;;;8.3;3.8;;;;;;;4.91;92.40625;941.0133;;;;
2020/12/22 06:32:59;;;;;;;8.6;4.4;;;;;;;4.74;93.37109;941.0731;;;;
2020/12/22 06:35:28;;;;;;;14;6.6;;;;;;;4.74;94.19531;940.9961;;;;
2020/12/22 06:37:49;;;;;;;8;5.1;;;;;;;4.76;94.32324;941.0439;;;;
2020/12/22 06:40:14;;;;;;;9.6;5.6;;;;;;;4.77;94.35742;941.0267;;;;
2020/12/22 06:42:39;;;;;;;5.8;3.4;;;;;;;4.71;94.22168;940.975;;;;
2020/12/22 06:45:04;;;;;;;4.6;2.1;;;;;;;4.65;95.16504;940.9949;;;;
2020/12/22 06:47:30;;;;;;;1.9;1.4;;;;;;;4.84;95.80664;940.9792;;;;
2020/12/22 06:49:56;;;;;;;2.3;1.2;;;;;;;5.02;95.94629;941.0031;;;;
2020/12/22 06:52:23;;;;;;;3.5;1.6;;;;;;;5.09;96.06445;940.9258;;;;
2020/12/22 06:54:48;;;;;;;2.5;1.5;;;;;;;5.17;95.82324;941.0475;;;;
2020/12/22 06:57:13;;;;;;;3.2;1.7;;;;;;;5.21;95.41406;941.062;;;;
2020/12/22 06:59:38;;;;;;;1.6;0.9;;;;;;;5.3;94.52246;941.2838;;;;
2020/12/22 07:02:07;;;;;;;2.2;1.3;;;;;;;5.27;94.19824;941.218;;;;
2020/12/22 07:04:33;;;;;;;2.3;1.7;;;;;;;5.27;94.13281;941.1099;;;;
2020/12/22 07:06:59;;;;;;;4.2;1.4;;;;;;;5.26;94.44434;941.1638;;;;
2020/12/22 07:09:23;;;;;;;3;2.6;;;;;;;5.26;94.33203;941.1315;;;;
2020/12/22 07:11:50;;;;;;;6.3;2.1;;;;;;;5.33;93.9082;941.1347;;;;
2020/12/22 07:14:15;;;;;;;5.6;2.1;;;;;;;5.19;93.36914;941.1912;;;;
2020/12/22 07:16:45;;;;;;;2.8;1.9;;;;;;;5.17;93.34277;941.1085;;;;
2020/12/22 07:19:10;;;;;;;8.5;3.3;;;;;;;5.21;92.2334;941.0594;;;;
2020/12/22 07:21:36;;;;;;;22.5;10.1;;;;;;;5.1;92.81934;941.1691;;;;
2020/12/22 07:24:03;;;;;;;4;2;;;;;;;5.06;93.14746;941.2988;;;;
2020/12/22 07:26:28;;;;;;;2.3;1.7;;;;;;;5.11;93.33984;941.4141;;;;
2020/12/22 07:28:54;;;;;;;2.1;1.3;;;;;;;5.24;93.69434;941.5286;;;;
2020/12/22 07:31:19;;;;;;;6;2.7;;;;;;;5.39;93.81836;941.4636;;;;
2020/12/22 07:33:46;;;;;;;3.7;2.6;;;;;;;5.39;93.7168;941.5686;;;;
2020/12/22 07:36:11;;;;;;;3;1.8;;;;;;;5.32;92.85547;941.4863;;;;
2020/12/22 07:38:36;;;;;;;4.9;3.2;;;;;;;5.21;92.69629;941.4266;;;;
2020/12/22 07:41:01;;;;;;;2;1.8;;;;;;;5.13;94.12207;941.4392;;;;
2020/12/22 07:43:26;;;;;;;2.8;1.9;;;;;;;5.12;93.03711;941.341;;;;
2020/12/22 07:45:51;;;;;;;11.6;5.6;;;;;;;4.97;93.13867;941.5336;;;;
2020/12/22 07:48:17;;;;;;;11.2;5.3;;;;;;;4.98;93.19922;941.6124;;;;
2020/12/22 07:50:43;;;;;;;10;5.1;;;;;;;5.1;93.19336;941.6618;;;;
2020/12/22 07:53:08;;;;;;;9.7;4.5;;;;;;;5.31;93.02441;941.7806;;;;
2020/12/22 07:55:33;;;;;;;7.5;3.5;;;;;;;5.51;93.1123;941.7861;;;;
2020/12/22 07:57:58;;;;;;;7.4;3.9;;;;;;;5.65;91.80078;941.6286;;;;
2020/12/22 08:00:30;;;;;;;6.8;3.1;;;;;;;5.73;91.19727;941.6035;;;;
2020/12/22 08:02:56;;;;;;;5.6;2.8;;;;;;;5.63;91.24219;941.818;;;;
2020/12/22 08:05:21;;;;;;;3.4;2.4;;;;;;;5.45;91.31445;941.7619;;;;
2020/12/22 08:07:46;;;;;;;6.5;2.7;;;;;;;5.29;92.02539;941.7427;;;;
2020/12/22 08:10:14;;;;;;;2.7;2.2;;;;;;;5.14;93.64063;941.7239;;;;
2020/12/22 08:12:39;;;;;;;4.2;2.1;;;;;;;5.24;93.9873;941.7156;;;;
2020/12/22 08:15:04;;;;;;;4.2;2.4;;;;;;;5.19;95.01758;941.6808;;;;
2020/12/22 08:17:29;;;;;;;5.5;3.3;;;;;;;5.25;96.0332;941.6397;;;;
2020/12/22 08:19:54;;;;;;;2.5;1.8;;;;;;;5.55;95.49023;941.6683;;;;
2020/12/22 08:22:19;;;;;;;4.2;2;;;;;;;5.58;94.55957;941.6462;;;;
2020/12/22 08:24:45;;;;;;;5.7;2.8;;;;;;;5.67;94.33105;941.5146;;;;
2020/12/22 08:27:13;;;;;;;6.6;2.6;;;;;;;5.75;93.61523;941.4658;;;;
2020/12/22 08:29:39;;;;;;;6.4;3.8;;;;;;;5.64;92.80176;941.387;;;;
2020/12/22 08:32:04;;;;;;;9.3;2.8;;;;;;;5.61;92.75195;941.3586;;;;
2020/12/22 08:34:30;;;;;;;3.4;2.2;;;;;;;5.77;92.70508;941.3022;;;;
2020/12/22 08:36:55;;;;;;;4.4;2.1;;;;;;;5.83;92.4248;941.3177;;;;
2020/12/22 08:39:20;;;;;;;3.8;2.9;;;;;;;6.01;92.35254;941.1976;;;;
2020/12/22 08:41:47;;;;;;;4.7;1.9;;;;;;;6.13;91.60742;941.293;;;;
2020/12/22 08:44:12;;;;;;;4.3;2.6;;;;;;;6.23;91.30078;941.3066;;;;
2020/12/22 08:46:40;;;;;;;5.2;2.9;;;;;;;6.01;91.89844;941.3279;;;;
2020/12/22 08:49:06;;;;;;;10.4;3.7;;;;;;;6.07;92.09375;941.2991;;;;
2020/12/22 08:51:31;;;;;;;7.7;4;;;;;;;6.14;91.64355;941.2466;;;;
2020/12/22 08:53:57;;;;;;;4.4;2.9;;;;;;;6.17;91.73242;941.3615;;;;
2020/12/22 08:56:22;;;;;;;2;1.6;;;;;;;5.93;93.19141;941.3055;;;;
2020/12/22 08:58:49;;;;;;;3.6;2.5;;;;;;;6.31;92.91309;941.2117;;;;
2020/12/22 09:01:15;;;;;;;3.4;1.8;;;;;;;6.32;92.45313;941.2603;;;;
2020/12/22 09:03:40;;;;;;;3.9;2.1;;;;;;;6.36;93.2168;941.3287;;;;
2020/12/22 09:06:08;;;;;;;4.2;2.4;;;;;;;6.68;92.56445;941.3088;;;;
2020/12/22 09:08:33;;;;;;;3.6;2.4;;;;;;;6.9;91.45508;941.3395;;;;
2020/12/22 09:11:01;;;;;;;4.6;2.5;;;;;;;6.9;91.04883;941.3215;;;;
2020/12/22 09:13:26;;;;;;;7;3.1;;;;;;;6.99;91.09082;941.3873;;;;
2020/12/22 09:15:52;;;;;;;6.4;2.6;;;;;;;7.09;90.59082;941.3879;;;;
2020/12/22 09:18:18;;;;;;;4.2;2.2;;;;;;;7.24;90.08887;941.3937;;;;
2020/12/22 09:20:43;;;;;;;2.9;2.3;;;;;;;7.3;89.79688;941.4667;;;;
2020/12/22 09:23:09;;;;;;;5.7;2.9;;;;;;;7.27;90.46875;941.4278;;;;
2020/12/22 09:25:34;;;;;;;5.9;3;;;;;;;7.4;90.46289;941.3491;;;;
2020/12/22 09:27:59;;;;;;;6.4;2.4;;;;;;;7.37;90.88867;941.4631;;;;
2020/12/22 09:30:26;;;;;;;5.1;3.3;;;;;;;7.42;91;941.4978;;;;
2020/12/22 09:32:52;;;;;;;2.9;1.5;;;;;;;7.53;91.03418;941.5159;;;;
2020/12/22 09:35:18;;;;;;;1.8;1;;;;;;;7.62;91.02148;941.4805;;;;
2020/12/22 09:37:44;;;;;;;1.6;0.9;;;;;;;7.83;91.03125;941.4519;;;;
2020/12/22 09:40:09;;;;;;;3.4;1.8;;;;;;;8.14;90.65332;941.3628;;;;
2020/12/22 09:42:34;;;;;;;6.9;4.1;;;;;;;8.46;90.13086;941.433;;;;
2020/12/22 09:45:00;;;;;;;6.3;2.6;;;;;;;8.47;88.6543;941.4482;;;;
2020/12/22 09:47:27;;;;;;;1.9;1.6;;;;;;;8.85;88.50684;941.4554;;;;
2020/12/22 09:49:52;;;;;;;1.1;1;;;;;;;8.84;87.33105;941.5536;;;;
2020/12/22 09:52:17;;;;;;;4.9;2.1;;;;;;;8.97;87.13086;941.4771;;;;
2020/12/22 09:54:42;;;;;;;3;1.5;;;;;;;9.1;86.70313;941.4911;;;;
2020/12/22 09:57:07;;;;;;;1.7;1.1;;;;;;;9.23;85.75977;941.3262;;;;
2020/12/22 09:59:32;;;;;;;2.4;1.4;;;;;;;9.3;85.10254;941.2489;;;;
2020/12/22 10:02:00;;;;;;;1.9;1.3;;;;;;;9.32;84.86816;941.3303;;;;
2020/12/22 10:04:25;;;;;;;2.8;1.9;;;;;;;9.17;86.13574;941.3256;;;;
2020/12/22 10:06:53;;;;;;;4.2;1.9;;;;;;;9.23;85.9209;941.3461;;;;
2020/12/22 10:09:18;;;;;;;2.6;1.3;;;;;;;9.27;85.84766;941.3524;;;;
2020/12/22 10:11:45;;;;;;;9.5;1.6;;;;;;;9.48;85.53809;941.2017;;;;
2020/12/22 10:14:10;;;;;;;5.9;2.8;;;;;;;9.62;84.90234;941.1702;;;;
2020/12/22 10:16:35;;;;;;;5.1;2.6;;;;;;;9.91;84.01465;941.2089;;;;
2020/12/22 10:19:00;;;;;;;3.1;2.1;;;;;;;10.17;83.17578;941.1353;;;;
2020/12/22 10:21:26;;;;;;;1.9;1.3;;;;;;;10.32;82.64648;941.0666;;;;
2020/12/22 10:23:51;;;;;;;2.2;1;;;;;;;10.3;82.62988;941.0717;;;;
2020/12/22 10:26:17;;;;;;;0.9;0.8;;;;;;;10.3;83.73633;941.0376;;;;
2020/12/22 10:28:42;;;;;;;2;1;;;;;;;10.33;83.70898;941.0556;;;;
2020/12/22 10:31:10;;;;;;;0.7;0.7;;;;;;;10.51;83.08008;941.009;;;;
2020/12/22 10:33:35;;;;;;;1;0.6;;;;;;;10.52;81.1543;940.9662;;;;
2020/12/22 10:36:00;;;;;;;1;0.6;;;;;;;10.7;80.61523;941.0006;;;;
2020/12/22 10:38:25;;;;;;;0.2;0.2;;;;;;;10.86;80.40527;940.8071;;;;
2020/12/22 10:40:52;;;;;;;1.2;0.4;;;;;;;10.79;79.31836;940.9144;;;;
2020/12/22 10:43:17;;;;;;;1.2;0.7;;;;;;;10.81;79.27734;940.8081;;;;
2020/12/22 10:45:47;;;;;;;1.7;0.9;;;;;;;10.89;79.29297;940.8904;;;;
2020/12/22 10:48:11;;;;;;;0.6;0.5;;;;;;;10.93;79.05957;940.8072;;;;
2020/12/22 10:50:41;;;;;;;0.3;0.3;;;;;;;11.28;78.45898;940.8731;;;;
2020/12/22 10:53:08;;;;;;;0.3;0.3;;;;;;;11.49;78.43066;940.858;;;;
2020/12/22 10:55:33;;;;;;;0.5;0.4;;;;;;;11.54;78.10742;940.892;;;;
2020/12/22 10:57:59;;;;;;;0.4;0.4;;;;;;;11.76;77.25293;940.8091;;;;
2020/12/22 11:00:24;;;;;;;0.9;0.5;;;;;;;11.83;75.69531;940.7894;;;;
2020/12/22 11:02:53;;;;;;;0.2;0.2;;;;;;;11.83;74.85938;940.8181;;;;
2020/12/22 11:05:17;;;;;;;0.6;0.5;;;;;;;11.98;74.59961;940.8361;;;;
2020/12/22 11:07:47;;;;;;;0.4;0.3;;;;;;;12.13;73.85645;940.8352;;;;
2020/12/22 11:10:08;;;;;;;0.5;0.4;;;;;;;12.12;73.9707;940.8384;;;;
2020/12/22 11:12:35;;;;;;;0.2;0.2;;;;;;;11.81;75.34863;940.864;;;;
2020/12/22 11:15:00;;;;;;;0.3;0.3;;;;;;;11.91;75.87012;940.9504;;;;
2020/12/22 11:17:27;;;;;;;0.4;0.4;;;;;;;11.9;75.18066;940.9185;;;;
2020/12/22 11:19:52;;;;;;;0.5;0.5;;;;;;;11.95;74.50195;941.0115;;;;
2020/12/22 11:22:18;;;;;;;2.4;0.5;;;;;;;12.05;75.33398;940.9192;;;;
2020/12/22 11:24:43;;;;;;;1.9;0.7;;;;;;;12.25;74.57617;940.9442;;;;
2020/12/22 11:27:09;;;;;;;0.6;0.5;;;;;;;12.36;74.93945;940.9481;;;;
2020/12/22 11:29:34;;;;;;;0.5;0.4;;;;;;;12.41;76.02734;940.8264;;;;
2020/12/22 11:31:59;;;;;;;0.3;0.3;;;;;;;12.42;75.13477;940.7333;;;;
2020/12/22 11:34:28;;;;;;;1.7;0.8;;;;;;;12.45;75.93164;940.7622;;;;
2020/12/22 11:36:53;;;;;;;4.9;1.9;;;;;;;12.42;76.61328;940.8083;;;;
2020/12/22 11:39:20;;;;;;;2.1;0.6;;;;;;;12.39;77.80176;940.8909;;;;
2020/12/22 11:41:45;;;;;;;0.5;0.5;;;;;;;12.32;75.92969;940.8513;;;;
2020/12/22 11:44:13;;;;;;;0.6;0.6;;;;;;;12.09;76.72656;940.7935;;;;
2020/12/22 11:46:38;;;;;;;4.7;1.1;;;;;;;11.75;80.6748;940.9342;;;;
2020/12/22 11:49:06;;;;;;;1.4;0.9;;;;;;;11.85;78.79199;940.7576;;;;
2020/12/22 11:51:31;;;;;;;1.1;1;;;;;;;11.94;79.96582;940.6922;;;;
2020/12/22 11:53:58;;;;;;;0.8;0.8;;;;;;;12.17;79.14941;940.6895;;;;
2020/12/22 11:56:23;;;;;;;0.8;0.7;;;;;;;12.15;79.28223;940.6829;;;;
2020/12/22 11:58:50;;;;;;;1;0.9;;;;;;;12.34;77.5625;940.4042;;;;
2020/12/22 12:01:15;;;;;;;1.3;0.8;;;;;;;12.55;78.37988;940.3994;;;;
2020/12/22 12:03:42;;;;;;;0.5;0.5;;;;;;;12.64;76.27441;940.4615;;;;
2020/12/22 12:06:07;;;;;;;0.7;0.3;;;;;;;12.74;77.70215;940.4149;;;;
2020/12/22 12:08:32;;;;;;;0.3;0.3;;;;;;;13.01;75.9707;940.5345;;;;
2020/12/22 12:11:00;;;;;;;0.8;0.7;;;;;;;13.18;76.5293;940.4341;;;;
2020/12/22 12:13:25;;;;;;;0.2;0.2;;;;;;;13.32;73.95703;940.4244;;;;
2020/12/22 12:15:54;;;;;;;0.2;0.2;;;;;;;13.29;75.54883;940.43;;;;
2020/12/22 12:18:25;;;;;;;0;0;;;;;;;13.19;72.64746;940.3878;;;;
2020/12/22 12:20:50;;;;;;;0.1;0.1;;;;;;;13.3;72.83789;940.5012;;;;
2020/12/22 12:23:16;;;;;;;0.4;0.2;;;;;;;13.43;75.00879;940.5505;;;;
2020/12/22 12:25:42;;;;;;;1.4;0.3;;;;;;;13.7;73.3877;940.5888;;;;
2020/12/22 12:28:07;;;;;;;0.7;0.3;;;;;;;13.29;74.93945;940.5251;;;;
2020/12/22 12:30:36;;;;;;;0.6;0.5;;;;;;;13.45;73.56543;940.5338;;;;
2020/12/22 12:33:02;;;;;;;0.3;0.2;;;;;;;13.55;72.45508;940.5908;;;;
2020/12/22 12:35:28;;;;;;;0.1;0.1;;;;;;;13.48;71.93848;940.6314;;;;
2020/12/22 12:37:58;;;;;;;0.1;0.1;;;;;;;13.72;73.30078;940.6409;;;;
2020/12/22 12:40:23;;;;;;;0.4;0.2;;;;;;;13.86;70.32031;940.4924;;;;
2020/12/22 12:42:51;;;;;;;0.5;0.4;;;;;;;13.85;73.32129;940.5549;;;;
2020/12/22 12:45:15;;;;;;;1.4;0.7;;;;;;;13.95;71.2666;940.4644;;;;
2020/12/22 12:47:42;;;;;;;0.5;0.5;;;;;;;14.02;73.22363;940.5264;;;;
2020/12/22 12:50:07;;;;;;;0.6;0.5;;;;;;;14.14;72.77344;940.4927;;;;
2020/12/22 12:52:35;;;;;;;1;0.6;;;;;;;14.18;69.65918;940.4077;;;;
2020/12/22 12:55:02;;;;;;;1.1;0.8;;;;;;;14.1;71.36133;940.5287;;;;
2020/12/22 12:57:28;;;;;;;1.4;0.7;;;;;;;14.23;70.71387;940.4072;;;;
2020/12/22 12:59:53;;;;;;;2.2;0.5;;;;;;;14.41;70.28418;940.5623;;;;
2020/12/22 13:02:19;;;;;;;0.9;0.8;;;;;;;14.37;70.94434;940.5335;;;;
2020/12/22 13:04:45;;;;;;;0.3;0.2;;;;;;;14.36;69.01855;940.4263;;;;
2020/12/22 13:07:10;;;;;;;0.9;0.6;;;;;;;14.29;71.42676;940.4895;;;;
2020/12/22 13:09:35;;;;;;;0.6;0.4;;;;;;;14.16;70.78418;940.5303;;;;
2020/12/22 13:12:00;;;;;;;0.8;0.7;;;;;;;13.84;71.90625;940.5533;;;;
2020/12/22 13:14:29;;;;;;;1.3;0.7;;;;;;;13.05;73.29102;940.4975;;;;
2020/12/22 13:16:54;;;;;;;0.8;0.7;;;;;;;12.72;76.17383;940.5027;;;;
2020/12/22 13:19:22;;;;;;;0.4;0.4;;;;;;;13.01;72.12402;940.4291;;;;
2020/12/22 13:21:48;;;;;;;0.8;0.5;;;;;;;12.94;74.79883;940.671;;;;
2020/12/22 13:24:13;;;;;;;1.2;0.7;;;;;;;12.83;76.52441;940.6833;;;;
2020/12/22 13:26:38;;;;;;;0.5;0.5;;;;;;;12.89;73.94238;940.5997;;;;
2020/12/22 13:29:05;;;;;;;1.7;1;;;;;;;12.44;77.39844;940.6367;;;;
2020/12/22 13:31:30;;;;;;;0.7;0.4;;;;;;;12.79;75.93262;940.5198;;;;
2020/12/22 13:33:58;;;;;;;1.7;0.6;;;;;;;12.31;78.44043;940.6443;;;;
2020/12/22 13:36:23;;;;;;;0.4;0.4;;;;;;;12.47;78.22852;940.7032;;;;
2020/12/22 13:38:49;;;;;;;1.2;0.7;;;;;;;12.23;76.95703;940.5273;;;;
2020/12/22 13:41:14;;;;;;;0.3;0.3;;;;;;;12.04;77.14258;940.655;;;;
2020/12/22 13:43:40;;;;;;;0.2;0.2;;;;;;;12.14;77.87109;940.7795;;;;
2020/12/22 13:46:05;;;;;;;0.2;0.2;;;;;;;12.42;76.83105;940.6318;;;;
2020/12/22 13:48:33;;;;;;;6.8;1;;;;;;;12.39;75.10645;940.7503;;;;
2020/12/22 13:50:58;;;;;;;1.2;0.8;;;;;;;12.02;79.22266;940.9358;;;;
2020/12/22 13:53:25;;;;;;;2;1.8;;;;;;;11.76;80.84863;940.6454;;;;
2020/12/22 13:55:50;;;;;;;2.1;1.4;;;;;;;11.43;83.94336;940.8925;;;;
2020/12/22 13:58:17;;;;;;;1.7;1.3;;;;;;;11.62;82.19531;940.8436;;;;
2020/12/22 14:00:50;;;;;;;2.2;1.8;;;;;;;11.24;83.51953;940.9883;;;;
2020/12/22 14:03:15;;;;;;;3.1;1.7;;;;;;;11.34;82.77246;940.7964;;;;
2020/12/22 14:05:46;;;;;;;1.1;0.8;;;;;;;11.22;84.77246;940.937;;;;
2020/12/22 14:08:12;;;;;;;1.1;0.9;;;;;;;11.31;82.97168;940.8894;;;;
2020/12/22 14:10:40;;;;;;;1.8;0.9;;;;;;;11.22;84.18945;941.0391;;;;
2020/12/22 14:13:07;;;;;;;1.6;1;;;;;;;11.53;81.48145;940.8999;;;;
2020/12/22 14:15:39;;;;;;;1;0.6;;;;;;;11.71;81.05566;940.9576;;;;
2020/12/22 14:18:05;;;;;;;0.5;0.5;;;;;;;11.88;79.11816;940.9191;;;;
2020/12/22 14:20:31;;;;;;;1.7;0.9;;;;;;;11.7;79.61133;940.8699;;;;
2020/12/22 14:22:58;;;;;;;0.9;0.7;;;;;;;11.88;78.92285;940.896;;;;
2020/12/22 14:25:23;;;;;;;1;0.9;;;;;;;11.66;79.30566;941.037;;;;
2020/12/22 14:27:49;;;;;;;14.8;8.2;;;;;;;11.52;81.1709;941.0203;;;;
2020/12/22 14:30:22;;;;;;;62.9;28.1;;;;;;;11.57;81.61621;940.8939;;;;
2020/12/22 14:32:49;;;;;;;262.4;124.7;;;;;;;11.53;81.29688;941.1223;;;;
2020/12/22 14:35:17;;;;;;;511.7;285.2;;;;;;;11.59;80.24609;941.0536;;;;
2020/12/22 14:37:45;;;;;;;6.6;3.6;;;;;;;11;79.97363;941.0789;;;;
2020/12/22 14:40:10;;;;;;;3.5;1.9;;;;;;;11.04;81.29688;941.0829;;;;
2020/12/22 14:42:36;;;;;;;4.1;2;;;;;;;11.21;81.6377;941.1057;;;;
2020/12/22 14:45:01;;;;;;;1.5;1.2;;;;;;;11.47;80.50684;941.2653;;;;
2020/12/22 14:47:26;;;;;;;4.8;2.6;;;;;;;11.48;79.8125;941.1881;;;;
2020/12/22 14:49:52;;;;;;;1.7;1.4;;;;;;;11.41;79.79883;941.3133;;;;
2020/12/22 14:52:17;;;;;;;1.7;1.3;;;;;;;11.53;79.16797;941.0793;;;;
2020/12/22 14:54:44;;;;;;;1.6;1.4;;;;;;;11.27;79.05371;941.1321;;;;
2020/12/22 14:57:09;;;;;;;1.8;1.4;;;;;;;11.35;80.03906;941.2262;;;;
2020/12/22 14:59:38;;;;;;;1.9;1.6;;;;;;;11.45;79.21094;941.2714;;;;
2020/12/22 15:02:02;;;;;;;2.7;1.8;;;;;;;11.49;79.74512;941.2991;;;;
2020/12/22 15:04:28;;;;;;;1.8;1.2;;;;;;;11.43;78.30371;941.2592;;;;
2020/12/22 15:06:53;;;;;;;1.3;0.8;;;;;;;11.4;78.28711;941.3033;;;;
2020/12/22 15:09:19;;;;;;;1.3;1.1;;;;;;;11.53;78.42578;941.2748;;;;
2020/12/22 15:11:44;;;;;;;3.5;2.4;;;;;;;11.52;78.65137;941.5002;;;;
2020/12/22 15:14:11;;;;;;;1.5;0.7;;;;;;;11.53;78.02344;941.4637;;;;
2020/12/22 15:16:36;;;;;;;1.1;1;;;;;;;11.48;79.01074;941.543;;;;
2020/12/22 15:19:02;;;;;;;3.2;1.9;;;;;;;11.47;77.99121;941.4543;;;;
2020/12/22 15:21:27;;;;;;;2.8;1.7;;;;;;;11.42;79.22852;941.5686;;;;
2020/12/22 15:23:54;;;;;;;2.8;1.4;;;;;;;11.06;79.29004;941.6617;;;;
2020/12/22 15:26:19;;;;;;;0.5;0.4;;;;;;;10.66;79.86621;941.4877;;;;
2020/12/22 15:28:45;;;;;;;1.7;0.6;;;;;;;10.74;81.33203;941.695;;;;
2020/12/22 15:31:15;;;;;;;3.7;1.1;;;;;;;10.95;80.27441;941.6225;;;;
2020/12/22 15:33:43;;;;;;;1;0.8;;;;;;;10.94;80.4209;941.8127;;;;
2020/12/22 15:36:08;;;;;;;1.9;0.9;;;;;;;10.88;80.28516;941.7434;;;;